Ceres, Argentina
Current Conditions -  °F | °C
As of 7:00 PM on Saturday 25 Oct 2014 (Local Time) from SACO Reporting Station
Clear Clear  
Wind Chill: 30°   Ceiling: Unl
Heat Index: 30°   Visibility: 6mi
Dew Point: 13°   Wind: 15mph
Humidity: 35%   Direction: 50°NE
Pressure: 29.83"   Gusts: NA
Location:  29.88°S, 61.94°W
Report Text: SACO 252200Z 05013KT CAVOK 30/13 Q1010
Loading
Personal Weather Stations






























Interactive Weather Map
Tropical Storm Tracking
New forecast layout! Learn more

10-Day Weather Forecast

Advertisements
Track Severe Weather on mobile